Terminal Aerodrome Forecast
Issued by NWS

Home | Current Version | Previous Version | Text Only | Print | Product List | Glossary On
Versions: 1 2 3 4 5 6 7 8 9 10 11 12 13 14 15 16 17 18 19 20 21 22 23
045
FTUS45 KPIH 082340
TAFSUN
TAF
KSUN 082340Z 0900/0924 VRB04KT 1SM -SN BR OVC008
      TEMPO 0900/0903 1/2SM SN FG OVC004
     FM090300 VRB04KT 4SM -SN BR SCT008 OVC015
     FM090900 31008KT P6SM VCSH BKN015 OVC110
     FM091800 16008KT 1SM -SN BR OVC008
      AMD LTD TO CLD VIS AND WIND 0906/0914=

USA.gov is the U.S. government's official web portal to all federal, state and local government web resources and services.